createdAt,value
2022-08-14T00:12:39.301Z,33.3251
2022-08-14T00:27:41.558Z,31.3355
2022-08-14T00:43:02.922Z,32.4535
2022-08-14T00:58:05.075Z,31.7936
2022-08-14T01:13:06.948Z,32.5117
2022-08-14T01:28:11.282Z,31.4686
2022-08-14T01:43:36.520Z,29.882
2022-08-14T01:58:38.656Z,31.1591
2022-08-14T02:14:00.060Z,29.9049
2022-08-14T02:29:09.543Z,30.4831
2022-08-14T02:44:12.010Z,29.3812
2022-08-14T02:59:13.948Z,28.9751
2022-08-14T03:14:18.045Z,29.245
2022-08-14T03:29:20.503Z,29.4883
2022-08-14T03:45:18.579Z,28.9324
2022-08-14T04:00:43.933Z,28.6334
2022-08-14T04:15:56.062Z,27.3792
2022-08-14T04:31:02.753Z,27.3365
2022-08-14T04:46:06.769Z,26.0105
2022-08-14T05:01:12.949Z,26.0396
2022-08-14T05:16:21.568Z,25.5914
2022-08-14T05:31:24.148Z,25.6855
2022-08-14T05:46:41.355Z,25.7697
2022-08-14T06:01:44.731Z,25.2528
2022-08-14T06:16:48.602Z,25.9647
2022-08-14T06:32:00.045Z,24.8498
2022-08-14T06:47:02.713Z,24.6257
2022-08-14T07:02:04.906Z,24.5898
2022-08-14T07:17:06.840Z,25.9777
2022-08-14T07:32:09.298Z,23.5467
2022-08-14T07:47:12.320Z,24.1379
2022-08-14T08:02:19.583Z,23.777
2022-08-14T08:17:22.305Z,22.0709
2022-08-14T08:32:30.082Z,23.1629
2022-08-14T08:47:36.252Z,22.633
2022-08-14T09:02:38.220Z,22.555
2022-08-14T09:17:41.213Z,23.8878
2022-08-14T09:32:59.625Z,23.3183
2022-08-14T09:48:01.914Z,22.2622
2022-08-14T10:03:05.169Z,21.0495
2022-08-14T10:18:07.882Z,21.3064
2022-08-14T10:33:10.646Z,22.1935
2022-08-14T10:48:34.521Z,20.9356
2022-08-14T11:03:56.908Z,22.0505
2022-08-14T11:18:59.720Z,22.4863
2022-08-14T11:34:01.662Z,20.7146
2022-08-14T11:49:06.059Z,21.0365
2022-08-14T12:04:21.423Z,20.8966
2022-08-14T12:19:33.497Z,22.7197
2022-08-14T12:34:35.653Z,22.8726
2022-08-14T12:49:37.463Z,20.8935
2022-08-14T13:04:40.058Z,22.5705
2022-08-14T13:19:45.158Z,23.3957
2022-08-14T13:34:47.813Z,23.0484
2022-08-14T13:49:57.515Z,23.4353
2022-08-14T14:05:00.156Z,23.5684
2022-08-14T14:20:04.667Z,24.5236
2022-08-14T14:35:06.659Z,23.6402
2022-08-14T14:50:09.045Z,23.7832
2022-08-14T15:05:12.739Z,23.8451
2022-08-14T15:20:16.817Z,24.3063
2022-08-14T15:35:22.353Z,24.2283
2022-08-14T15:50:24.477Z,24.4233
2022-08-14T16:05:28.540Z,24.6022
2022-08-14T16:20:42.526Z,24.4852
2022-08-14T16:35:59.790Z,24.3552
2022-08-14T16:51:06.666Z,24.219
2022-08-14T17:06:25.633Z,24.8362
2022-08-14T17:21:35.323Z,24.6641
2022-08-14T17:36:39.519Z,24.531
2022-08-14T17:51:41.402Z,25.025
2022-08-14T18:06:57.898Z,26.4451
2022-08-14T18:22:31.287Z,26.728
2022-08-14T18:37:34.860Z,27.6609
2022-08-14T18:52:37.104Z,27.8169
2022-08-14T19:07:40.712Z,28.392
2022-08-14T19:22:42.528Z,28.2787
2022-08-14T19:37:44.322Z,28.5746
2022-08-14T19:52:46.861Z,28.6266
2022-08-14T20:07:59.289Z,29.5496
2022-08-14T20:23:02.803Z,30.3624
2022-08-14T20:38:31.578Z,31.0285
2022-08-14T20:53:35.482Z,31.0551
2022-08-14T21:08:37.523Z,31.7509
2022-08-14T21:23:54.772Z,32.4269
2022-08-14T21:38:57.575Z,32.6027
2022-08-14T21:54:00.102Z,33.5158
2022-08-14T22:09:02.116Z,33.7145
2022-08-14T22:24:10.537Z,34.3484
2022-08-14T22:39:13.410Z,34.8263
2022-08-14T22:54:52.680Z,35.5543
2022-08-14T23:09:56.540Z,35.9412
2022-08-14T23:24:59.399Z,36.0322
2022-08-14T23:40:01.294Z,33.6755
2022-08-14T23:55:03.155Z,31.1566
